Terminal Aerodrome Forecast
Issued by NWS

Current Version | Previous Version | Text Only | Print | Product List | Glossary On
Versions: 1 2 3 4 5 6 7 8 9 10 11 12 13
339
FTUS46 KSEW 291120
TAFBLI
TAF
KBLI 291120Z 2912/3012 17008KT P6SM VCSH SCT025 BKN035 OVC050
      TEMPO 2912/2916 BKN025 OVC035
     FM291900 18008KT P6SM SCT030 BKN050
     FM300300 17006KT P6SM SCT050=

USA.gov is the U.S. government's official web portal to all federal, state and local government web resources and services.